createdAt,value
2023-11-22T00:00:06.310Z,354.17
2023-11-22T00:00:51.401Z,311.39
2023-11-22T00:01:36.372Z,315.37
2023-11-22T00:02:21.644Z,323.33
2023-11-22T00:03:06.385Z,340.24
2023-11-22T00:03:51.542Z,313.38
2023-11-22T00:04:36.285Z,310.40
2023-11-22T00:05:21.587Z,406.90
2023-11-22T00:06:06.746Z,449.68
2023-11-22T00:06:51.624Z,319.35
2023-11-22T00:07:36.493Z,329.30
2023-11-22T00:08:21.466Z,385.01
2023-11-22T00:09:06.655Z,369.09
2023-11-22T00:09:51.955Z,341.24
2023-11-22T00:10:36.505Z,333.28
2023-11-22T00:11:21.935Z,296.47
2023-11-22T00:12:07.212Z,281.54
2023-11-22T00:12:51.670Z,303.43
2023-11-22T00:13:36.873Z,336.26
2023-11-22T00:14:21.667Z,365.36
2023-11-22T00:15:07.087Z,358.39
2023-11-22T00:15:51.926Z,339.48
2023-11-22T00:16:36.864Z,374.32
2023-11-22T00:17:22.064Z,430.07
2023-11-22T00:18:07.455Z,362.37
2023-11-22T00:18:52.231Z,385.27
2023-11-22T00:19:37.477Z,388.26
2023-11-22T00:20:22.084Z,428.08
2023-11-22T00:21:07.270Z,521.66
2023-11-22T00:21:52.557Z,521.66
2023-11-22T00:22:37.343Z,366.35
2023-11-22T00:23:22.326Z,361.38
2023-11-22T00:24:07.800Z,377.05
2023-11-22T00:24:52.636Z,409.88
2023-11-22T00:25:37.935Z,478.53
2023-11-22T00:26:22.804Z,514.34
2023-11-22T00:27:07.989Z,470.57
2023-11-22T00:27:52.733Z,387.01
2023-11-22T00:28:37.984Z,476.54
2023-11-22T00:29:22.944Z,486.49
2023-11-22T00:30:07.899Z,486.49
2023-11-22T00:30:53.317Z,449.52
2023-11-22T00:31:38.601Z,432.76
2023-11-22T00:32:23.639Z,467.58
2023-11-22T00:33:08.352Z,436.74
2023-11-22T00:33:53.100Z,432.76
2023-11-22T00:34:38.285Z,461.61
2023-11-22T00:35:23.518Z,412.87
2023-11-22T00:36:08.261Z,439.73
2023-11-22T00:36:53.597Z,359.14
2023-11-22T00:37:38.347Z,368.10
2023-11-22T00:38:24.203Z,415.85
2023-11-22T00:39:08.913Z,337.39
2023-11-22T00:39:53.733Z,395.95
2023-11-22T00:40:38.652Z,426.70
2023-11-22T00:41:23.642Z,356.16
2023-11-22T00:42:08.571Z,356.16
2023-11-22T00:42:53.784Z,373.07
2023-11-22T00:43:38.645Z,411.82
2023-11-22T00:44:23.967Z,429.78
2023-11-22T00:45:08.891Z,367.10
2023-11-22T00:45:54.011Z,1010.77
2023-11-22T00:46:39.118Z,673.79
2023-11-22T00:47:23.942Z,584.98
2023-11-22T00:48:09.035Z,780.96
2023-11-22T00:48:54.346Z,1123.81
2023-11-22T00:49:39.419Z,306.42
2023-11-22T00:50:24.150Z,330.29
2023-11-22T00:51:09.477Z,333.28
2023-11-22T00:51:54.553Z,288.51
2023-11-22T00:52:39.425Z,367.10
2023-11-22T00:53:24.564Z,388.99
2023-11-22T00:54:09.618Z,412.87
2023-11-22T00:54:55.014Z,734.20
2023-11-22T00:55:40.114Z,725.25
2023-11-22T00:56:24.760Z,380.04
2023-11-22T00:57:09.841Z,380.04
2023-11-22T00:57:54.856Z,417.84
2023-11-22T00:58:40.364Z,626.76
2023-11-22T00:59:25.174Z,559.11
2023-11-22T01:00:09.908Z,559.11
2023-11-22T01:00:55.402Z,977.94
2023-11-22T01:01:40.412Z,631.73
2023-11-22T01:02:25.632Z,770.02
2023-11-22T01:03:10.759Z,770.02
2023-11-22T01:03:55.411Z,115.40
2023-11-22T01:04:41.241Z,168.13
2023-11-22T01:05:25.793Z,168.13
2023-11-22T01:06:10.676Z,168.13
2023-11-22T01:06:56.034Z,202.95
2023-11-22T01:07:40.782Z,200.96
2023-11-22T01:08:26.246Z,211.90
2023-11-22T01:09:10.993Z,203.95
2023-11-22T01:09:55.930Z,285.52
2023-11-22T01:10:41.071Z,243.74
2023-11-22T01:11:25.878Z,256.67
2023-11-22T01:12:10.967Z,290.50
2023-11-22T01:12:56.269Z,355.16
2023-11-22T01:13:41.098Z,260.98
2023-11-22T01:14:26.492Z,239.76
2023-11-22T01:15:11.307Z,271.90
2023-11-22T01:15:56.375Z,302.44
2023-11-22T01:16:41.420Z,214.89
2023-11-22T01:17:26.587Z,259.66
2023-11-22T01:18:11.253Z,269.91
2023-11-22T01:18:56.841Z,329.30
2023-11-22T01:19:41.764Z,483.50
2023-11-22T01:20:26.667Z,482.51
2023-11-22T01:21:11.685Z,454.65
2023-11-22T01:21:56.897Z,478.53
2023-11-22T01:22:41.675Z,414.86
2023-11-22T01:23:26.749Z,370.09
2023-11-22T01:24:11.987Z,335.27
2023-11-22T01:24:57.043Z,405.86
2023-11-22T01:25:42.194Z,461.61
2023-11-22T01:26:27.246Z,356.16
2023-11-22T01:27:12.359Z,328.30
2023-11-22T01:27:57.179Z,399.93
2023-11-22T01:28:42.328Z,327.31
2023-11-22T01:29:27.319Z,327.31
2023-11-22T01:30:12.400Z,425.80
2023-11-22T01:30:57.469Z,360.14
2023-11-22T01:31:42.327Z,391.97
2023-11-22T01:32:27.722Z,424.80
2023-11-22T01:33:12.969Z,320.34
2023-11-22T01:33:57.624Z,322.33
2023-11-22T01:34:42.841Z,330.29
2023-11-22T01:35:27.799Z,252.05
2023-11-22T01:36:12.755Z,343.23
2023-11-22T01:36:58.018Z,303.65
2023-11-22T01:37:42.985Z,297.46
2023-11-22T01:38:27.946Z,297.46
2023-11-22T01:39:13.136Z,217.87
2023-11-22T01:39:58.184Z,217.87
2023-11-22T01:40:43.001Z,270.60
2023-11-22T01:41:28.338Z,174.10
2023-11-22T01:42:13.503Z,230.81
2023-11-22T01:42:58.230Z,230.81
2023-11-22T01:43:43.403Z,215.88
2023-11-22T01:44:28.379Z,197.47
2023-11-22T01:45:13.605Z,233.79
2023-11-22T01:45:58.590Z,214.34
2023-11-22T01:46:43.428Z,203.95
2023-11-22T01:47:28.791Z,201.44
2023-11-22T01:48:13.392Z,201.96
2023-11-22T01:48:58.734Z,200.96
2023-11-22T01:49:43.562Z,180.07
2023-11-22T01:50:28.873Z,130.33
2023-11-22T01:51:13.926Z,166.14
2023-11-22T01:51:58.642Z,130.33
2023-11-22T01:52:43.619Z,130.33
2023-11-22T01:53:28.766Z,112.42
2023-11-22T01:54:13.786Z,132.32
2023-11-22T01:54:59.017Z,146.86
2023-11-22T01:55:44.021Z,138.29
2023-11-22T01:56:29.036Z,106.45
2023-11-22T01:57:14.091Z,90.53
2023-11-22T01:57:59.090Z,93.28
2023-11-22T01:58:44.177Z,105.45
2023-11-22T01:59:29.132Z,108.16
2023-11-22T02:00:14.126Z,85.34
2023-11-22T02:00:59.318Z,93.52
2023-11-22T02:01:44.242Z,82.57
2023-11-22T02:02:29.366Z,84.56
2023-11-22T02:03:14.625Z,106.45
2023-11-22T02:03:59.445Z,73.62
2023-11-22T02:04:44.577Z,90.53
2023-11-22T02:05:29.629Z,109.43
2023-11-22T02:06:14.578Z,71.63
2023-11-22T02:06:59.589Z,82.57
2023-11-22T02:07:44.545Z,104.46
2023-11-22T02:08:29.757Z,96.50
2023-11-22T02:09:14.970Z,83.57
2023-11-22T02:09:59.608Z,85.56
2023-11-22T02:10:44.975Z,73.62
2023-11-22T02:11:29.978Z,104.46
2023-11-22T02:12:14.750Z,89.54
2023-11-22T02:13:00.060Z,103.47
2023-11-22T02:13:45.164Z,96.26
2023-11-22T02:14:30.190Z,95.51
2023-11-22T02:15:15.244Z,85.34
2023-11-22T02:16:00.510Z,104.46
2023-11-22T02:16:45.182Z,85.34
2023-11-22T02:17:30.464Z,77.60
2023-11-22T02:18:15.221Z,103.09
2023-11-22T02:19:00.557Z,93.45
2023-11-22T02:19:45.450Z,69.59
2023-11-22T02:20:30.413Z,98.42
2023-11-22T02:21:15.901Z,73.56
2023-11-22T02:22:00.583Z,126.25
2023-11-22T02:22:45.605Z,123.27
2023-11-22T02:23:30.764Z,86.49
2023-11-22T02:24:15.522Z,86.49
2023-11-22T02:25:00.835Z,112.33
2023-11-22T02:25:46.020Z,135.81
2023-11-22T02:26:30.740Z,174.96
2023-11-22T02:27:15.786Z,174.96
2023-11-22T02:28:00.990Z,181.92
2023-11-22T02:28:46.500Z,132.22
2023-11-22T02:29:31.328Z,166.02
2023-11-22T02:30:16.462Z,174.96
2023-11-22T02:31:01.146Z,178.94
2023-11-22T02:31:46.155Z,148.12
2023-11-22T02:32:31.559Z,197.83
2023-11-22T02:33:16.187Z,180.93
2023-11-22T02:34:01.362Z,291.27
2023-11-22T02:34:46.652Z,399.63
2023-11-22T02:35:31.452Z,851.95
2023-11-22T02:36:16.592Z,621.32
2023-11-22T02:37:03.635Z,327.06
2023-11-22T02:37:46.814Z,494.07
2023-11-22T02:38:31.847Z,714.76
2023-11-22T02:39:16.724Z,517.93
2023-11-22T02:40:01.671Z,476.18
2023-11-22T02:40:47.025Z,570.62
2023-11-22T02:41:31.823Z,457.29
2023-11-22T02:42:16.998Z,457.29
2023-11-22T02:43:02.117Z,666.05
2023-11-22T02:43:46.977Z,556.70
2023-11-22T02:44:32.201Z,498.05
2023-11-22T02:45:17.012Z,573.60
2023-11-22T02:46:02.198Z,618.33
2023-11-22T02:46:47.199Z,1154.16
2023-11-22T02:47:32.113Z,1032.87
2023-11-22T02:48:17.393Z,1157.14
2023-11-22T02:49:02.390Z,1143.22
2023-11-22T02:49:47.295Z,685.93
2023-11-22T02:50:32.489Z,685.93
2023-11-22T02:51:17.450Z,669.03
2023-11-22T02:52:02.783Z,603.42
2023-11-22T02:52:47.447Z,683.94
2023-11-22T02:53:32.590Z,645.17
2023-11-22T02:54:17.675Z,689.91
2023-11-22T02:55:03.149Z,791.31
2023-11-22T02:55:47.476Z,756.51
2023-11-22T02:56:32.663Z,661.08
2023-11-22T02:57:17.666Z,676.99
2023-11-22T02:58:02.691Z,560.67
2023-11-22T02:58:48.121Z,565.65
2023-11-22T02:59:32.672Z,570.62
2023-11-22T03:00:18.314Z,670.11
2023-11-22T03:01:03.040Z,755.52
2023-11-22T03:01:48.005Z,638.22
2023-11-22T03:02:33.334Z,648.16
2023-11-22T03:03:18.505Z,628.27
2023-11-22T03:04:03.101Z,732.66
2023-11-22T03:04:48.509Z,814.84
2023-11-22T03:05:33.491Z,873.82
2023-11-22T03:06:18.842Z,879.78
2023-11-22T03:07:03.787Z,934.46
2023-11-22T03:07:48.820Z,914.58
2023-11-22T03:08:33.569Z,920.54
2023-11-22T03:09:18.637Z,838.03
2023-11-22T03:10:03.666Z,850.95
2023-11-22T03:10:49.016Z,932.80
2023-11-22T03:11:33.811Z,944.40
2023-11-22T03:12:19.144Z,950.36
2023-11-22T03:13:04.074Z,1035.86
2023-11-22T03:13:48.973Z,1144.21
2023-11-22T03:14:34.050Z,1149.18
2023-11-22T03:15:19.031Z,872.33
2023-11-22T03:16:04.157Z,1047.79
2023-11-22T03:16:49.155Z,1045.81
2023-11-22T03:17:34.465Z,49.71
2023-11-22T03:18:19.340Z,25.77
2023-11-22T03:19:04.048Z,34.79
2023-11-22T03:19:49.228Z,49.71
2023-11-22T03:20:34.589Z,132.22
2023-11-22T03:21:19.614Z,1112.40
2023-11-22T03:22:04.550Z,1069.66
2023-11-22T03:22:49.664Z,1051.76
2023-11-22T03:23:34.647Z,320.10
2023-11-22T03:24:19.699Z,410.57
2023-11-22T03:25:05.197Z,804.23
2023-11-22T03:25:49.777Z,662.07
2023-11-22T03:26:34.918Z,987.15
2023-11-22T03:27:19.608Z,987.15
2023-11-22T03:28:04.951Z,318.11
2023-11-22T03:28:50.042Z,266.42
2023-11-22T03:29:34.847Z,243.56
2023-11-22T03:30:20.032Z,187.35
2023-11-22T03:31:05.249Z,340.98
2023-11-22T03:31:50.073Z,220.80
2023-11-22T03:32:35.543Z,220.69
2023-11-22T03:33:20.301Z,220.69
2023-11-22T03:34:05.248Z,156.07
2023-11-22T03:34:50.415Z,156.07
2023-11-22T03:35:35.255Z,150.11
2023-11-22T03:36:20.429Z,150.11
2023-11-22T03:37:05.474Z,399.91
2023-11-22T03:37:50.242Z,320.80
2023-11-22T03:38:35.480Z,337.39
2023-11-22T03:39:20.663Z,359.22
2023-11-22T03:40:06.119Z,359.22
2023-11-22T03:40:51.011Z,421.74
2023-11-22T03:41:35.848Z,334.41
2023-11-22T03:42:20.623Z,334.41
2023-11-22T03:43:05.939Z,388.99
2023-11-22T03:43:50.768Z,388.99
2023-11-22T03:44:36.055Z,382.05
2023-11-22T03:45:21.142Z,382.05
2023-11-22T03:46:06.039Z,508.07
2023-11-22T03:46:51.039Z,424.72
2023-11-22T03:47:36.038Z,394.95
2023-11-22T03:48:21.223Z,349.30
2023-11-22T03:49:06.230Z,333.42
2023-11-22T03:49:50.945Z,420.81
2023-11-22T03:50:36.213Z,737.30
2023-11-22T03:51:21.135Z,503.11
2023-11-22T03:52:05.938Z,846.99
2023-11-22T03:52:50.972Z,836.53
2023-11-22T03:53:36.154Z,836.53
2023-11-22T03:54:21.053Z,557.69
2023-11-22T03:55:06.080Z,995.30
2023-11-22T03:55:51.405Z,1017.14
2023-11-22T03:56:36.386Z,1060.80
2023-11-22T03:57:21.321Z,1079.65
2023-11-22T03:58:06.336Z,979.43
2023-11-22T03:58:51.561Z,887.14
2023-11-22T03:59:36.521Z,1014.16
2023-11-22T04:00:21.535Z,1032.02
2023-11-22T04:01:06.963Z,902.03
2023-11-22T04:01:51.586Z,946.68
2023-11-22T04:02:36.799Z,1032.02
2023-11-22T04:03:22.081Z,997.29
2023-11-22T04:04:06.636Z,979.24
2023-11-22T04:04:51.679Z,1017.14
2023-11-22T04:05:36.889Z,1029.04
2023-11-22T04:06:21.822Z,1008.02
2023-11-22T04:07:06.877Z,1025.92
2023-11-22T04:07:51.989Z,1015.97
2023-11-22T04:08:36.973Z,975.22
2023-11-22T04:09:21.860Z,989.13
2023-11-22T04:10:07.411Z,572.60
2023-11-22T04:10:52.601Z,462.26
2023-11-22T04:11:37.446Z,334.02
2023-11-22T04:12:22.451Z,210.75
2023-11-22T04:13:08.056Z,210.75
2023-11-22T04:13:52.784Z,210.75
2023-11-22T04:14:37.837Z,319.11
2023-11-22T04:15:22.990Z,878.79
2023-11-22T04:16:07.910Z,221.69
2023-11-22T04:16:52.789Z,221.69
2023-11-22T04:17:37.775Z,178.94
2023-11-22T04:18:22.734Z,520.43
2023-11-22T04:19:08.132Z,1092.52
2023-11-22T04:19:53.102Z,1092.52
2023-11-22T04:20:37.997Z,1033.87
2023-11-22T04:21:23.298Z,1033.87
2023-11-22T04:22:08.089Z,1078.60
2023-11-22T04:22:53.250Z,995.30
2023-11-22T04:23:38.473Z,1091.56
2023-11-22T04:24:23.520Z,1158.05
2023-11-22T04:25:08.694Z,992.33
2023-11-22T04:25:53.628Z,838.64
2023-11-22T04:26:38.662Z,806.22
2023-11-22T04:27:23.593Z,772.42
2023-11-22T04:28:08.865Z,764.47
2023-11-22T04:28:53.697Z,764.47
2023-11-22T04:29:38.755Z,843.99
2023-11-22T04:30:23.678Z,815.17
2023-11-22T04:31:08.854Z,883.76
2023-11-22T04:31:53.859Z,799.97
2023-11-22T04:32:39.177Z,812.18
2023-11-22T04:33:23.955Z,857.46
2023-11-22T04:34:09.066Z,760.49
2023-11-22T04:34:54.082Z,743.59
2023-11-22T04:35:39.114Z,761.48
2023-11-22T04:36:25.608Z,713.77
2023-11-22T04:37:09.441Z,677.76
2023-11-22T04:37:54.473Z,827.60
2023-11-22T04:38:39.290Z,983.40
2023-11-22T04:39:24.499Z,983.40
2023-11-22T04:40:09.353Z,993.32
2023-11-22T04:40:54.831Z,1058.81
2023-11-22T04:41:39.635Z,904.01
2023-11-22T04:42:24.694Z,996.07
2023-11-22T04:43:09.645Z,830.58
2023-11-22T04:43:54.864Z,921.87
2023-11-22T04:44:39.781Z,982.40
2023-11-22T04:45:24.901Z,929.81
2023-11-22T04:46:10.260Z,809.88
2023-11-22T04:46:54.831Z,744.61
2023-11-22T04:47:40.316Z,667.14
2023-11-22T04:48:25.270Z,1120.15
2023-11-22T04:49:10.612Z,1153.86
2023-11-22T04:49:55.396Z,1153.86
2023-11-22T04:50:40.181Z,1132.71
2023-11-22T04:51:25.437Z,1075.29
2023-11-22T04:52:10.414Z,1149.55
2023-11-22T04:52:55.584Z,1102.24
2023-11-22T04:53:40.805Z,896.89
2023-11-22T04:54:25.663Z,730.77
2023-11-22T04:55:10.824Z,565.63
2023-11-22T04:55:55.640Z,614.08
2023-11-22T04:56:40.942Z,627.93
2023-11-22T04:57:25.827Z,588.52
2023-11-22T04:58:11.315Z,564.38
2023-11-22T04:58:55.867Z,586.16
2023-11-22T04:59:41.007Z,631.71
2023-11-22T05:00:25.695Z,665.37
2023-11-22T05:01:11.050Z,584.18
2023-11-22T05:01:55.822Z,491.75
2023-11-22T05:02:41.284Z,508.53
2023-11-22T05:03:26.579Z,517.45
2023-11-22T05:04:10.947Z,457.97
2023-11-22T05:04:56.198Z,556.11
2023-11-22T05:05:41.414Z,535.66
2023-11-22T05:06:26.582Z,485.17
2023-11-22T05:07:11.421Z,488.14
2023-11-22T05:07:56.682Z,463.38
2023-11-22T05:08:41.551Z,526.75
2023-11-22T05:09:26.549Z,447.54
2023-11-22T05:10:11.890Z,481.21
2023-11-22T05:10:57.431Z,481.21
2023-11-22T05:11:41.726Z,291.10
2023-11-22T05:12:26.769Z,291.10
2023-11-22T05:13:11.726Z,277.24
2023-11-22T05:13:56.805Z,277.24
2023-11-22T05:14:42.074Z,295.06
2023-11-22T05:15:27.103Z,284.17
2023-11-22T05:16:12.156Z,282.19
2023-11-22T05:16:57.286Z,297.04
2023-11-22T05:17:42.221Z,282.19
2023-11-22T05:18:27.271Z,294.07
2023-11-22T05:19:12.018Z,289.32
2023-11-22T05:19:57.162Z,268.59
2023-11-22T05:20:42.106Z,306.94
2023-11-22T05:21:27.332Z,336.65
2023-11-22T05:22:11.845Z,275.26
2023-11-22T05:22:57.353Z,325.75
2023-11-22T05:23:44.935Z,324.76
2023-11-22T05:24:27.323Z,335.66
2023-11-22T05:25:12.685Z,332.68
2023-11-22T05:25:57.364Z,317.83
2023-11-22T05:26:42.559Z,280.21
2023-11-22T05:27:27.967Z,267.34
2023-11-22T05:28:12.806Z,280.21
2023-11-22T05:28:57.688Z,276.25
2023-11-22T05:29:47.439Z,287.14
2023-11-22T05:30:27.954Z,273.28
2023-11-22T05:31:12.876Z,279.22
2023-11-22T05:31:58.412Z,300.01
2023-11-22T05:32:42.936Z,259.42
2023-11-22T05:33:28.369Z,284.39
2023-11-22T05:34:13.098Z,257.43
2023-11-22T05:34:58.444Z,257.43
2023-11-22T05:35:43.137Z,255.45
2023-11-22T05:36:28.284Z,241.93
2023-11-22T05:37:13.071Z,250.50
2023-11-22T05:37:58.463Z,258.42
2023-11-22T05:38:43.625Z,266.35
2023-11-22T05:39:28.280Z,266.35
2023-11-22T05:40:13.485Z,240.60
2023-11-22T05:40:58.887Z,266.61
2023-11-22T05:41:43.579Z,229.71
2023-11-22T05:42:28.639Z,229.71
2023-11-22T05:43:13.850Z,215.85
2023-11-22T05:43:58.673Z,215.85
2023-11-22T05:44:43.943Z,215.85
2023-11-22T05:45:29.015Z,188.13
2023-11-22T05:46:13.998Z,197.04
2023-11-22T05:46:59.097Z,235.65
2023-11-22T05:47:44.318Z,226.74
2023-11-22T05:48:29.018Z,208.92
2023-11-22T05:49:14.222Z,211.89
2023-11-22T05:49:59.204Z,239.61
2023-11-22T05:50:44.355Z,240.60
2023-11-22T05:51:29.367Z,240.60
2023-11-22T05:52:14.242Z,275.26
2023-11-22T05:52:59.632Z,272.54
2023-11-22T05:53:44.627Z,258.42
2023-11-22T05:54:29.406Z,301.99
2023-11-22T05:55:14.461Z,292.09
2023-11-22T05:55:59.404Z,328.72
2023-11-22T05:56:44.530Z,328.72
2023-11-22T05:57:29.627Z,399.92
2023-11-22T05:58:14.615Z,522.79
2023-11-22T05:58:59.729Z,522.79
2023-11-22T06:00:29.688Z,617.84
2023-11-22T06:01:15.120Z,662.40
2023-11-22T06:02:00.172Z,886.17
2023-11-22T06:02:45.693Z,1105.98
2023-11-22T06:03:30.102Z,1083.21
2023-11-22T06:04:15.408Z,1155.49
2023-11-22T06:05:00.757Z,1147.57
2023-11-22T06:05:45.361Z,1152.52
2023-11-22T06:06:30.349Z,1164.40
2023-11-22T06:07:15.344Z,1145.93
2023-11-22T06:08:00.620Z,1168.36
2023-11-22T06:08:45.486Z,1162.42
2023-11-22T06:09:30.394Z,1158.46
2023-11-22T06:10:15.514Z,933.70
2023-11-22T06:11:00.827Z,1144.59
2023-11-22T06:11:45.471Z,408.93
2023-11-22T06:12:30.721Z,453.48
2023-11-22T06:13:15.522Z,434.67
2023-11-22T06:14:01.078Z,488.14
2023-11-22T06:14:45.761Z,485.17
2023-11-22T06:15:33.260Z,449.52
2023-11-22T06:16:15.904Z,418.83
2023-11-22T06:17:00.985Z,416.34
2023-11-22T06:17:46.050Z,463.92
2023-11-22T06:18:30.955Z,427.24
2023-11-22T06:19:15.860Z,420.31
2023-11-22T06:20:01.210Z,404.45
2023-11-22T06:20:45.865Z,429.23
2023-11-22T06:21:31.035Z,417.33
2023-11-22T06:22:16.195Z,404.45
2023-11-22T06:23:01.062Z,381.65
2023-11-22T06:23:46.257Z,382.64
2023-11-22T06:24:31.475Z,392.58
2023-11-22T06:25:16.812Z,419.31
2023-11-22T06:26:01.476Z,541.24
2023-11-22T06:26:46.795Z,342.99
2023-11-22T06:27:31.720Z,366.78
2023-11-22T06:28:16.527Z,393.54
2023-11-22T06:29:01.755Z,417.33
2023-11-22T06:29:46.734Z,491.68
2023-11-22T06:30:31.767Z,508.53
2023-11-22T06:31:17.047Z,397.51
2023-11-22T06:32:01.629Z,362.81
2023-11-22T06:32:47.213Z,306.31
2023-11-22T06:33:32.155Z,322.90
2023-11-22T06:34:17.141Z,323.16
2023-11-22T06:35:02.028Z,330.10
2023-11-22T06:35:47.399Z,359.84
2023-11-22T06:36:32.362Z,358.96
2023-11-22T06:37:17.479Z,306.31
2023-11-22T06:38:02.497Z,307.30
2023-11-22T06:38:47.709Z,333.68
2023-11-22T06:39:32.842Z,314.86
2023-11-22T06:40:17.747Z,285.16
2023-11-22T06:41:02.437Z,402.98
2023-11-22T06:41:47.770Z,298.03
2023-11-22T06:42:32.866Z,302.98
2023-11-22T06:43:17.993Z,288.13
2023-11-22T06:44:03.055Z,293.08
2023-11-22T06:44:48.169Z,323.88
2023-11-22T06:45:33.015Z,301.99
2023-11-22T06:46:17.812Z,305.95
2023-11-22T06:47:03.139Z,348.53
2023-11-22T06:47:48.450Z,358.43
2023-11-22T06:48:33.578Z,324.76
2023-11-22T06:49:18.385Z,343.63
2023-11-22T06:50:03.266Z,345.96
2023-11-22T06:50:48.428Z,317.21
2023-11-22T06:51:33.499Z,326.13
2023-11-22T06:52:18.319Z,276.57
2023-11-22T06:53:03.561Z,321.18
2023-11-22T06:53:48.737Z,321.18
2023-11-22T06:54:33.532Z,349.92
2023-11-22T06:55:18.485Z,303.33
2023-11-22T06:56:03.751Z,433.19
2023-11-22T06:56:49.071Z,339.68
2023-11-22T06:57:33.862Z,321.18
2023-11-22T06:58:18.578Z,289.32
2023-11-22T06:59:04.436Z,314.24
2023-11-22T06:59:48.722Z,350.92
2023-11-22T07:00:33.788Z,344.97
2023-11-22T07:01:19.301Z,373.79
2023-11-22T07:02:03.761Z,342.99
2023-11-22T07:02:49.236Z,359.84
2023-11-22T07:03:34.408Z,382.64
2023-11-22T07:04:19.549Z,382.64
2023-11-22T07:05:04.494Z,429.23
2023-11-22T07:05:49.707Z,429.23
2023-11-22T07:06:34.506Z,421.30
2023-11-22T07:07:19.390Z,421.30
2023-11-22T07:08:05.072Z,404.45
2023-11-22T07:08:49.313Z,393.54
2023-11-22T07:09:34.643Z,347.94
2023-11-22T07:10:19.693Z,347.94
2023-11-22T07:11:04.437Z,876.13
2023-11-22T07:11:49.813Z,876.13
2023-11-22T07:12:34.363Z,1148.90
2023-11-22T07:13:19.588Z,1094.38
2023-11-22T07:14:04.636Z,1040.85
2023-11-22T07:14:49.853Z,1040.85
2023-11-22T07:15:34.511Z,1149.89
2023-11-22T07:16:19.607Z,1161.79
2023-11-22T07:17:04.711Z,1162.78
2023-11-22T07:17:49.729Z,1156.48
2023-11-22T07:18:34.875Z,1143.60
2023-11-22T07:19:19.917Z,1159.45
2023-11-22T07:20:04.691Z,1155.32
2023-11-22T07:20:49.950Z,1159.45
2023-11-22T07:21:35.344Z,1159.45
2023-11-22T07:22:21.016Z,1159.45
2023-11-22T07:23:04.947Z,1156.83
2023-11-22T07:23:53.739Z,1156.83
2023-11-22T07:24:35.044Z,409.64
2023-11-22T07:25:20.264Z,464.92
2023-11-22T07:26:05.514Z,464.92
2023-11-22T07:26:50.323Z,535.27
2023-11-22T07:27:35.400Z,537.81
2023-11-22T07:28:22.032Z,532.73
2023-11-22T07:29:05.404Z,525.11
2023-11-22T07:29:51.044Z,525.11
2023-11-22T07:30:36.169Z,553.39
2023-11-22T07:31:20.708Z,1099.25
2023-11-22T07:32:05.993Z,430.71
2023-11-22T07:32:51.036Z,526.75
2023-11-22T07:33:36.339Z,526.75
2023-11-22T07:34:21.408Z,526.75
2023-11-22T07:35:06.365Z,526.75
2023-11-22T07:35:51.505Z,526.75
2023-11-22T07:36:36.376Z,1093.11
2023-11-22T07:37:21.047Z,998.23
2023-11-22T07:38:06.348Z,998.23
2023-11-22T07:38:51.447Z,1173.31
2023-11-22T07:39:36.326Z,1155.32
2023-11-22T07:40:21.468Z,1176.28
2023-11-22T07:41:06.588Z,958.82
2023-11-22T07:41:51.496Z,807.95
2023-11-22T07:42:36.653Z,727.75
2023-11-22T07:43:22.086Z,765.37
2023-11-22T07:44:06.554Z,721.81
2023-11-22T07:44:51.955Z,571.31
2023-11-22T07:45:36.887Z,546.06
2023-11-22T07:46:21.971Z,639.63
2023-11-22T07:47:06.938Z,579.63
2023-11-22T07:47:52.238Z,677.25
2023-11-22T07:48:36.987Z,705.04
2023-11-22T07:49:22.090Z,746.56
2023-11-22T07:50:06.941Z,625.06
2023-11-22T07:50:52.210Z,552.49
2023-11-22T07:51:36.815Z,588.52
2023-11-22T07:52:22.104Z,627.74
2023-11-22T07:53:07.521Z,717.85
2023-11-22T07:53:52.244Z,674.28
2023-11-22T07:54:37.329Z,754.48
2023-11-22T07:55:22.561Z,735.67
2023-11-22T07:56:07.321Z,735.67
2023-11-22T07:56:52.376Z,641.61
2023-11-22T07:57:37.527Z,629.01
2023-11-22T07:58:22.635Z,619.82
2023-11-22T07:59:07.885Z,566.36
2023-11-22T07:59:52.483Z,547.54
2023-11-22T08:00:37.638Z,560.42
2023-11-22T08:01:22.843Z,598.04
2023-11-22T08:02:08.142Z,595.43
2023-11-22T08:02:53.087Z,558.44
2023-11-22T08:03:38.134Z,558.44
2023-11-22T08:04:22.919Z,581.21
2023-11-22T08:05:08.506Z,568.77
2023-11-22T08:05:52.996Z,543.58
2023-11-22T08:06:38.215Z,522.79
2023-11-22T08:07:23.156Z,564.38
2023-11-22T08:08:08.269Z,558.44
2023-11-22T08:08:53.746Z,544.57
2023-11-22T08:09:38.285Z,595.07
2023-11-22T08:10:23.600Z,643.59
2023-11-22T08:11:08.303Z,688.14
2023-11-22T08:11:53.647Z,542.59
2023-11-22T08:12:38.600Z,506.95
2023-11-22T08:13:23.449Z,490.12
2023-11-22T08:14:08.749Z,493.09
2023-11-22T08:14:53.875Z,471.30
2023-11-22T08:15:38.686Z,527.36
2023-11-22T08:16:23.927Z,520.43
2023-11-22T08:17:09.107Z,511.50
2023-11-22T08:17:54.015Z,511.50
2023-11-22T08:18:39.241Z,509.52
2023-11-22T08:19:23.874Z,530.26
2023-11-22T08:20:10.995Z,502.58
2023-11-22T08:20:54.091Z,535.30
2023-11-22T08:21:39.009Z,528.36
2023-11-22T08:22:24.366Z,528.36
2023-11-22T08:23:09.015Z,568.01
2023-11-22T08:23:54.153Z,525.38
2023-11-22T08:24:39.281Z,547.19
2023-11-22T08:25:24.133Z,547.19
2023-11-22T08:26:09.466Z,645.33
2023-11-22T08:26:54.475Z,539.26
2023-11-22T08:27:39.304Z,536.29
2023-11-22T08:28:24.806Z,600.72
2023-11-22T08:29:09.337Z,569.99
2023-11-22T08:29:54.569Z,605.68
2023-11-22T08:30:39.550Z,679.03
2023-11-22T08:31:24.849Z,710.75
2023-11-22T08:32:09.664Z,629.47
2023-11-22T08:32:55.801Z,663.17
2023-11-22T08:33:39.797Z,657.22
2023-11-22T08:34:24.821Z,681.01
2023-11-22T08:35:10.006Z,663.17
2023-11-22T08:35:54.961Z,621.54
2023-11-22T08:36:40.206Z,607.66
2023-11-22T08:37:25.237Z,580.89
2023-11-22T08:38:09.953Z,533.68
2023-11-22T08:38:55.295Z,508.93
2023-11-22T08:39:40.354Z,527.30
2023-11-22T08:40:25.161Z,549.52
2023-11-22T08:41:10.547Z,631.97
2023-11-22T08:41:55.423Z,626.75
2023-11-22T08:42:40.424Z,579.63
2023-11-22T08:43:25.482Z,604.97
2023-11-22T08:44:10.263Z,628.73
2023-11-22T08:44:55.694Z,609.92
2023-11-22T08:45:40.679Z,609.92
2023-11-22T08:46:25.862Z,580.22
2023-11-22T08:47:10.834Z,587.15
2023-11-22T08:47:56.108Z,559.43
2023-11-22T08:48:42.067Z,565.81
2023-11-22T08:49:26.216Z,518.83
2023-11-22T08:50:10.644Z,554.47
2023-11-22T08:50:55.977Z,491.11
2023-11-22T08:51:40.744Z,491.11
2023-11-22T08:52:26.200Z,551.50
2023-11-22T08:53:10.972Z,559.43
2023-11-22T08:53:56.521Z,549.52
2023-11-22T08:54:41.103Z,549.52
2023-11-22T08:55:26.194Z,565.37
2023-11-22T08:56:11.448Z,565.37
2023-11-22T08:56:56.190Z,656.46
2023-11-22T08:57:41.345Z,624.77
2023-11-22T08:58:26.550Z,654.48
2023-11-22T08:59:11.305Z,646.56
2023-11-22T08:59:56.321Z,603.98
2023-11-22T09:00:41.508Z,589.13
2023-11-22T09:01:26.514Z,552.49
2023-11-22T09:02:11.464Z,662.54
2023-11-22T09:02:56.856Z,665.50
2023-11-22T09:03:41.909Z,719.89
2023-11-22T09:04:26.572Z,671.44
2023-11-22T09:05:11.977Z,640.78
2023-11-22T09:05:57.212Z,633.86
2023-11-22T09:06:41.837Z,653.64
2023-11-22T09:07:26.963Z,636.83
2023-11-22T09:08:16.325Z,663.52
2023-11-22T09:08:57.137Z,578.48
2023-11-22T09:09:41.714Z,497.40
2023-11-22T09:10:27.120Z,529.04
2023-11-22T09:11:12.245Z,577.49
2023-11-22T09:11:57.158Z,1088.73
2023-11-22T09:12:42.575Z,1038.15
2023-11-22T09:13:27.242Z,581.08
2023-11-22T09:14:12.449Z,679.01
2023-11-22T09:14:57.699Z,837.89
2023-11-22T09:15:42.560Z,942.05
2023-11-22T09:16:27.610Z,979.48
2023-11-22T09:17:12.609Z,939.23
2023-11-22T09:17:57.737Z,1151.03
2023-11-22T09:18:42.869Z,1109.34
2023-11-22T09:19:27.567Z,1134.58
2023-11-22T09:20:12.846Z,1129.28
2023-11-22T09:20:57.735Z,1130.27